Itarema, Brazil
Current Conditions -  °F | °C
As of 3:00 PM on Monday 26 Jan 2015 (Local Time) from SBFZ Reporting Station
Clear Clear  
Wind Chill: 86°   Ceiling: Unl
Heat Index: 86°   Visibility: 6mi
Dew Point: 61°   Wind: 16mph
Humidity: 43%   Direction: 100°E
Pressure: 29.85"   Gusts: NA
Location:  2.92°S, 39.91°W
Report Text: SBFZ 261800Z 10014KT CAVOK 30/16 Q1011
Loading
Personal Weather Stations






























Interactive Weather Map New forecast layout! Learn more

10-Day Weather Forecast

Advertisements
Track Severe Weather on mobile